sensor_id;sensor_type;location;lat;lon;timestamp;temperature;humidity
21648;DHT22;10985;54.182;7.890;2023-05-29T00:01:26;10.90;99.90
21648;DHT22;10985;54.182;7.890;2023-05-29T00:03:52;10.90;99.90
21648;DHT22;10985;54.182;7.890;2023-05-29T00:06:19;10.90;99.90
21648;DHT22;10985;54.182;7.890;2023-05-29T00:08:44;10.90;99.90
21648;DHT22;10985;54.182;7.890;2023-05-29T00:11:10;10.90;99.90
21648;DHT22;10985;54.182;7.890;2023-05-29T00:13:36;10.90;99.90
21648;DHT22;10985;54.182;7.890;2023-05-29T00:16:01;10.80;99.90
21648;DHT22;10985;54.182;7.890;2023-05-29T00:18:28;10.90;99.90
21648;DHT22;10985;54.182;7.890;2023-05-29T00:20:54;10.80;99.90
21648;DHT22;10985;54.182;7.890;2023-05-29T00:23:21;10.80;99.90
21648;DHT22;10985;54.182;7.890;2023-05-29T00:25:47;10.80;99.90
21648;DHT22;10985;54.182;7.890;2023-05-29T00:28:13;10.80;99.90
21648;DHT22;10985;54.182;7.890;2023-05-29T00:30:39;10.80;99.90
21648;DHT22;10985;54.182;7.890;2023-05-29T00:33:05;10.80;99.90
21648;DHT22;10985;54.182;7.890;2023-05-29T00:35:31;10.80;99.90
21648;DHT22;10985;54.182;7.890;2023-05-29T00:37:57;10.80;99.90
21648;DHT22;10985;54.182;7.890;2023-05-29T00:40:23;10.80;99.90
21648;DHT22;10985;54.182;7.890;2023-05-29T00:42:48;10.80;99.90
21648;DHT22;10985;54.182;7.890;2023-05-29T00:45:14;10.70;99.90
21648;DHT22;10985;54.182;7.890;2023-05-29T00:47:41;10.70;99.90
21648;DHT22;10985;54.182;7.890;2023-05-29T00:50:08;10.70;99.90
21648;DHT22;10985;54.182;7.890;2023-05-29T00:52:36;10.70;99.90
21648;DHT22;10985;54.182;7.890;2023-05-29T00:55:03;10.70;99.90
21648;DHT22;10985;54.182;7.890;2023-05-29T00:57:30;10.70;99.90
21648;DHT22;10985;54.182;7.890;2023-05-29T00:59:56;10.70;99.90
21648;DHT22;10985;54.182;7.890;2023-05-29T01:02:23;10.70;99.90
21648;DHT22;10985;54.182;7.890;2023-05-29T01:04:48;10.70;99.90
21648;DHT22;10985;54.182;7.890;2023-05-29T01:07:14;10.70;99.90
21648;DHT22;10985;54.182;7.890;2023-05-29T01:09:41;10.70;99.90
21648;DHT22;10985;54.182;7.890;2023-05-29T01:12:35;10.60;99.90
21648;DHT22;10985;54.182;7.890;2023-05-29T01:18:06;10.60;99.90
21648;DHT22;10985;54.182;7.890;2023-05-29T01:20:42;10.60;99.90
21648;DHT22;10985;54.182;7.890;2023-05-29T01:28:48;10.60;99.90
21648;DHT22;10985;54.182;7.890;2023-05-29T01:31:19;10.60;99.90
21648;DHT22;10985;54.182;7.890;2023-05-29T01:33:55;10.60;99.90
21648;DHT22;10985;54.182;7.890;2023-05-29T01:36:21;10.60;99.90
21648;DHT22;10985;54.182;7.890;2023-05-29T01:38:48;10.60;99.90
21648;DHT22;10985;54.182;7.890;2023-05-29T01:41:15;10.60;99.90
21648;DHT22;10985;54.182;7.890;2023-05-29T01:43:46;10.50;99.90
21648;DHT22;10985;54.182;7.890;2023-05-29T01:46:15;10.60;99.90
21648;DHT22;10985;54.182;7.890;2023-05-29T01:48:45;10.50;99.90
21648;DHT22;10985;54.182;7.890;2023-05-29T01:51:11;10.50;99.90
21648;DHT22;10985;54.182;7.890;2023-05-29T01:53:38;10.50;99.90
21648;DHT22;10985;54.182;7.890;2023-05-29T01:56:05;10.50;99.90
21648;DHT22;10985;54.182;7.890;2023-05-29T01:58:31;10.50;99.90
21648;DHT22;10985;54.182;7.890;2023-05-29T02:00:58;10.50;99.90
21648;DHT22;10985;54.182;7.890;2023-05-29T02:03:23;10.50;99.90
21648;DHT22;10985;54.182;7.890;2023-05-29T02:05:49;10.50;99.90
21648;DHT22;10985;54.182;7.890;2023-05-29T02:08:15;10.40;99.90
21648;DHT22;10985;54.182;7.890;2023-05-29T02:10:41;10.40;99.90
21648;DHT22;10985;54.182;7.890;2023-05-29T02:13:06;10.40;99.90
21648;DHT22;10985;54.182;7.890;2023-05-29T02:15:32;10.40;99.90
21648;DHT22;10985;54.182;7.890;2023-05-29T02:17:57;10.40;99.90
21648;DHT22;10985;54.182;7.890;2023-05-29T02:20:24;10.40;99.90
21648;DHT22;10985;54.182;7.890;2023-05-29T02:22:50;10.40;99.90
21648;DHT22;10985;54.182;7.890;2023-05-29T02:25:15;10.40;99.90
21648;DHT22;10985;54.182;7.890;2023-05-29T02:27:41;10.30;99.90
21648;DHT22;10985;54.182;7.890;2023-05-29T02:30:07;10.30;99.90
21648;DHT22;10985;54.182;7.890;2023-05-29T02:32:33;10.40;99.90
21648;DHT22;10985;54.182;7.890;2023-05-29T02:34:59;10.40;99.90
21648;DHT22;10985;54.182;7.890;2023-05-29T02:37:24;10.40;99.90
21648;DHT22;10985;54.182;7.890;2023-05-29T02:39:51;10.30;99.90
21648;DHT22;10985;54.182;7.890;2023-05-29T02:42:17;10.40;99.90
21648;DHT22;10985;54.182;7.890;2023-05-29T02:44:42;10.30;99.90
21648;DHT22;10985;54.182;7.890;2023-05-29T02:47:08;10.30;99.90
21648;DHT22;10985;54.182;7.890;2023-05-29T02:49:33;10.30;99.90
21648;DHT22;10985;54.182;7.890;2023-05-29T02:51:59;10.30;99.90
21648;DHT22;10985;54.182;7.890;2023-05-29T02:54:25;10.30;99.90
21648;DHT22;10985;54.182;7.890;2023-05-29T02:56:53;10.30;99.90
21648;DHT22;10985;54.182;7.890;2023-05-29T02:59:19;10.30;99.90
21648;DHT22;10985;54.182;7.890;2023-05-29T03:01:44;10.30;99.90
21648;DHT22;10985;54.182;7.890;2023-05-29T03:04:11;10.30;99.90
21648;DHT22;10985;54.182;7.890;2023-05-29T03:06:36;10.30;99.90
21648;DHT22;10985;54.182;7.890;2023-05-29T03:09:05;10.30;99.90
21648;DHT22;10985;54.182;7.890;2023-05-29T03:11:32;10.30;99.90
21648;DHT22;10985;54.182;7.890;2023-05-29T03:13:58;10.30;99.90
21648;DHT22;10985;54.182;7.890;2023-05-29T03:16:24;10.30;99.90
21648;DHT22;10985;54.182;7.890;2023-05-29T03:18:49;10.30;99.90
21648;DHT22;10985;54.182;7.890;2023-05-29T03:21:16;10.30;99.90
21648;DHT22;10985;54.182;7.890;2023-05-29T03:23:42;10.20;99.90
21648;DHT22;10985;54.182;7.890;2023-05-29T03:26:07;10.30;99.90
21648;DHT22;10985;54.182;7.890;2023-05-29T03:28:33;10.30;99.90
21648;DHT22;10985;54.182;7.890;2023-05-29T03:30:58;10.30;99.90
21648;DHT22;10985;54.182;7.890;2023-05-29T03:33:24;10.30;99.90
21648;DHT22;10985;54.182;7.890;2023-05-29T03:35:49;10.30;99.90
21648;DHT22;10985;54.182;7.890;2023-05-29T03:38:15;10.30;99.90
21648;DHT22;10985;54.182;7.890;2023-05-29T03:40:40;10.30;99.90
21648;DHT22;10985;54.182;7.890;2023-05-29T03:43:06;10.30;99.90
21648;DHT22;10985;54.182;7.890;2023-05-29T03:45:31;10.30;99.90
21648;DHT22;10985;54.182;7.890;2023-05-29T03:47:57;10.30;99.90
21648;DHT22;10985;54.182;7.890;2023-05-29T03:50:22;10.30;99.90
21648;DHT22;10985;54.182;7.890;2023-05-29T03:52:48;10.30;99.90
21648;DHT22;10985;54.182;7.890;2023-05-29T03:55:13;10.30;99.90
21648;DHT22;10985;54.182;7.890;2023-05-29T03:57:40;10.30;99.90
21648;DHT22;10985;54.182;7.890;2023-05-29T04:00:09;10.30;99.90
21648;DHT22;10985;54.182;7.890;2023-05-29T04:02:39;10.30;99.90
21648;DHT22;10985;54.182;7.890;2023-05-29T04:05:05;10.30;99.90
21648;DHT22;10985;54.182;7.890;2023-05-29T04:07:35;10.30;99.90
21648;DHT22;10985;54.182;7.890;2023-05-29T04:10:02;10.40;99.90
21648;DHT22;10985;54.182;7.890;2023-05-29T04:12:28;10.40;99.90
21648;DHT22;10985;54.182;7.890;2023-05-29T04:14:53;10.40;99.90
21648;DHT22;10985;54.182;7.890;2023-05-29T04:17:19;10.40;99.90
21648;DHT22;10985;54.182;7.890;2023-05-29T04:19:44;10.40;99.90
21648;DHT22;10985;54.182;7.890;2023-05-29T04:22:10;10.40;99.90
21648;DHT22;10985;54.182;7.890;2023-05-29T04:24:36;10.40;99.90
21648;DHT22;10985;54.182;7.890;2023-05-29T04:27:01;10.40;99.90
21648;DHT22;10985;54.182;7.890;2023-05-29T04:29:28;10.40;99.90
21648;DHT22;10985;54.182;7.890;2023-05-29T04:31:54;10.50;99.90
21648;DHT22;10985;54.182;7.890;2023-05-29T04:34:20;10.50;99.90
21648;DHT22;10985;54.182;7.890;2023-05-29T04:36:47;10.50;99.90
21648;DHT22;10985;54.182;7.890;2023-05-29T04:39:12;10.50;99.90
21648;DHT22;10985;54.182;7.890;2023-05-29T04:41:39;10.50;99.90
21648;DHT22;10985;54.182;7.890;2023-05-29T04:44:06;10.50;99.90
21648;DHT22;10985;54.182;7.890;2023-05-29T04:46:32;10.60;99.90
21648;DHT22;10985;54.182;7.890;2023-05-29T04:49:00;10.60;99.90
21648;DHT22;10985;54.182;7.890;2023-05-29T04:51:28;10.60;99.90
21648;DHT22;10985;54.182;7.890;2023-05-29T04:53:55;10.60;99.90
21648;DHT22;10985;54.182;7.890;2023-05-29T04:56:20;10.60;99.90
21648;DHT22;10985;54.182;7.890;2023-05-29T04:58:47;10.70;99.90
21648;DHT22;10985;54.182;7.890;2023-05-29T05:01:13;10.70;99.90
21648;DHT22;10985;54.182;7.890;2023-05-29T05:03:43;10.70;99.90
21648;DHT22;10985;54.182;7.890;2023-05-29T05:06:08;10.80;99.90
21648;DHT22;10985;54.182;7.890;2023-05-29T05:08:34;10.80;99.90
21648;DHT22;10985;54.182;7.890;2023-05-29T05:11:00;10.80;99.90
21648;DHT22;10985;54.182;7.890;2023-05-29T05:13:26;10.90;99.90
21648;DHT22;10985;54.182;7.890;2023-05-29T05:15:53;10.90;99.90
21648;DHT22;10985;54.182;7.890;2023-05-29T05:18:19;10.90;99.90
21648;DHT22;10985;54.182;7.890;2023-05-29T05:20:45;11.00;99.90
21648;DHT22;10985;54.182;7.890;2023-05-29T05:23:10;11.10;99.90
21648;DHT22;10985;54.182;7.890;2023-05-29T05:25:36;11.10;99.90
21648;DHT22;10985;54.182;7.890;2023-05-29T05:28:04;11.20;99.90
21648;DHT22;10985;54.182;7.890;2023-05-29T05:30:29;11.20;99.90
21648;DHT22;10985;54.182;7.890;2023-05-29T05:32:55;11.30;99.90
21648;DHT22;10985;54.182;7.890;2023-05-29T05:35:21;11.40;99.90
21648;DHT22;10985;54.182;7.890;2023-05-29T05:37:47;11.50;99.90
21648;DHT22;10985;54.182;7.890;2023-05-29T05:40:12;11.60;99.90
21648;DHT22;10985;54.182;7.890;2023-05-29T05:42:38;11.70;99.90
21648;DHT22;10985;54.182;7.890;2023-05-29T05:45:04;11.70;99.90
21648;DHT22;10985;54.182;7.890;2023-05-29T05:47:31;11.80;99.90
21648;DHT22;10985;54.182;7.890;2023-05-29T05:49:57;11.80;99.90
21648;DHT22;10985;54.182;7.890;2023-05-29T05:52:23;11.80;99.90
21648;DHT22;10985;54.182;7.890;2023-05-29T05:54:49;11.80;99.90
21648;DHT22;10985;54.182;7.890;2023-05-29T05:57:15;11.90;99.90
21648;DHT22;10985;54.182;7.890;2023-05-29T05:59:41;12.00;99.90
21648;DHT22;10985;54.182;7.890;2023-05-29T06:02:06;12.00;99.90
21648;DHT22;10985;54.182;7.890;2023-05-29T06:04:32;12.10;99.90
21648;DHT22;10985;54.182;7.890;2023-05-29T06:06:57;12.20;99.90
21648;DHT22;10985;54.182;7.890;2023-05-29T06:09:23;12.20;99.90
21648;DHT22;10985;54.182;7.890;2023-05-29T06:11:48;12.20;99.90
21648;DHT22;10985;54.182;7.890;2023-05-29T06:14:14;12.30;99.90
21648;DHT22;10985;54.182;7.890;2023-05-29T06:16:40;12.40;99.90
21648;DHT22;10985;54.182;7.890;2023-05-29T06:19:06;12.40;99.90
21648;DHT22;10985;54.182;7.890;2023-05-29T06:21:31;12.50;99.90
21648;DHT22;10985;54.182;7.890;2023-05-29T06:23:57;12.60;99.90
21648;DHT22;10985;54.182;7.890;2023-05-29T06:26:23;12.60;99.90
21648;DHT22;10985;54.182;7.890;2023-05-29T06:28:50;12.80;99.90
21648;DHT22;10985;54.182;7.890;2023-05-29T06:31:15;12.80;99.90
21648;DHT22;10985;54.182;7.890;2023-05-29T06:33:41;12.80;99.90
21648;DHT22;10985;54.182;7.890;2023-05-29T06:36:07;12.90;99.90
21648;DHT22;10985;54.182;7.890;2023-05-29T06:38:32;13.00;99.90
21648;DHT22;10985;54.182;7.890;2023-05-29T06:40:58;13.00;99.90
21648;DHT22;10985;54.182;7.890;2023-05-29T06:43:23;13.10;99.90
21648;DHT22;10985;54.182;7.890;2023-05-29T06:45:49;13.20;99.90
21648;DHT22;10985;54.182;7.890;2023-05-29T06:48:14;13.30;99.90
21648;DHT22;10985;54.182;7.890;2023-05-29T06:50:40;13.40;99.90
21648;DHT22;10985;54.182;7.890;2023-05-29T06:53:05;13.40;99.90
21648;DHT22;10985;54.182;7.890;2023-05-29T06:55:31;13.50;99.90
21648;DHT22;10985;54.182;7.890;2023-05-29T06:57:57;13.60;99.90
21648;DHT22;10985;54.182;7.890;2023-05-29T07:00:22;13.60;99.90
21648;DHT22;10985;54.182;7.890;2023-05-29T07:02:48;13.60;99.90
21648;DHT22;10985;54.182;7.890;2023-05-29T07:05:14;13.70;99.90
21648;DHT22;10985;54.182;7.890;2023-05-29T07:07:39;13.70;99.90
21648;DHT22;10985;54.182;7.890;2023-05-29T07:10:05;13.70;99.90
21648;DHT22;10985;54.182;7.890;2023-05-29T07:12:31;13.80;99.90
21648;DHT22;10985;54.182;7.890;2023-05-29T07:14:57;13.90;99.90
21648;DHT22;10985;54.182;7.890;2023-05-29T07:17:22;14.00;99.90
21648;DHT22;10985;54.182;7.890;2023-05-29T07:19:48;14.00;99.90
21648;DHT22;10985;54.182;7.890;2023-05-29T07:22:15;14.00;99.90
21648;DHT22;10985;54.182;7.890;2023-05-29T07:24:40;14.10;99.90
21648;DHT22;10985;54.182;7.890;2023-05-29T07:27:06;14.10;99.90
21648;DHT22;10985;54.182;7.890;2023-05-29T07:29:32;14.10;99.90
21648;DHT22;10985;54.182;7.890;2023-05-29T07:31:57;14.10;99.90
21648;DHT22;10985;54.182;7.890;2023-05-29T07:34:23;14.10;99.90
21648;DHT22;10985;54.182;7.890;2023-05-29T07:37:16;14.20;99.90
21648;DHT22;10985;54.182;7.890;2023-05-29T07:39:41;14.20;99.90
21648;DHT22;10985;54.182;7.890;2023-05-29T07:42:08;14.20;99.90
21648;DHT22;10985;54.182;7.890;2023-05-29T07:44:33;14.20;99.90
21648;DHT22;10985;54.182;7.890;2023-05-29T07:46:59;14.10;99.90
21648;DHT22;10985;54.182;7.890;2023-05-29T07:49:24;14.10;99.90
21648;DHT22;10985;54.182;7.890;2023-05-29T07:51:50;14.00;99.90
21648;DHT22;10985;54.182;7.890;2023-05-29T07:54:16;14.10;99.90
21648;DHT22;10985;54.182;7.890;2023-05-29T07:56:43;14.00;99.90
21648;DHT22;10985;54.182;7.890;2023-05-29T07:59:10;14.00;99.90
21648;DHT22;10985;54.182;7.890;2023-05-29T08:01:36;14.10;99.90
21648;DHT22;10985;54.182;7.890;2023-05-29T08:04:02;14.20;99.90
21648;DHT22;10985;54.182;7.890;2023-05-29T08:06:28;14.30;99.90
21648;DHT22;10985;54.182;7.890;2023-05-29T08:08:53;14.40;99.90
21648;DHT22;10985;54.182;7.890;2023-05-29T08:11:19;14.50;99.90
21648;DHT22;10985;54.182;7.890;2023-05-29T08:13:45;14.60;99.90
21648;DHT22;10985;54.182;7.890;2023-05-29T08:16:11;14.70;99.90
21648;DHT22;10985;54.182;7.890;2023-05-29T08:18:36;14.90;99.90
21648;DHT22;10985;54.182;7.890;2023-05-29T08:21:02;15.10;99.90
21648;DHT22;10985;54.182;7.890;2023-05-29T08:23:28;15.20;99.90
21648;DHT22;10985;54.182;7.890;2023-05-29T08:25:53;15.40;99.90
21648;DHT22;10985;54.182;7.890;2023-05-29T08:28:19;15.60;99.90
21648;DHT22;10985;54.182;7.890;2023-05-29T08:30:45;15.70;99.90
21648;DHT22;10985;54.182;7.890;2023-05-29T08:33:11;15.80;99.90
21648;DHT22;10985;54.182;7.890;2023-05-29T08:35:36;16.00;99.90
21648;DHT22;10985;54.182;7.890;2023-05-29T08:38:02;16.10;99.90
21648;DHT22;10985;54.182;7.890;2023-05-29T08:40:27;16.20;99.90
21648;DHT22;10985;54.182;7.890;2023-05-29T08:45:34;16.60;99.90
21648;DHT22;10985;54.182;7.890;2023-05-29T08:48:02;16.90;99.90
21648;DHT22;10985;54.182;7.890;2023-05-29T08:50:28;17.30;99.90
21648;DHT22;10985;54.182;7.890;2023-05-29T08:52:54;17.60;99.90
21648;DHT22;10985;54.182;7.890;2023-05-29T08:55:21;17.90;99.90
21648;DHT22;10985;54.182;7.890;2023-05-29T08:57:47;18.10;99.90
21648;DHT22;10985;54.182;7.890;2023-05-29T09:00:15;18.30;99.90
21648;DHT22;10985;54.182;7.890;2023-05-29T09:02:45;18.40;99.90
21648;DHT22;10985;54.182;7.890;2023-05-29T09:05:11;18.50;99.90
21648;DHT22;10985;54.182;7.890;2023-05-29T09:07:38;18.60;99.90
21648;DHT22;10985;54.182;7.890;2023-05-29T09:10:09;18.80;99.90
21648;DHT22;10985;54.182;7.890;2023-05-29T09:12:35;19.10;99.90
21648;DHT22;10985;54.182;7.890;2023-05-29T09:15:01;19.50;99.90
21648;DHT22;10985;54.182;7.890;2023-05-29T09:17:33;19.80;99.90
21648;DHT22;10985;54.182;7.890;2023-05-29T09:19:58;19.90;99.90
21648;DHT22;10985;54.182;7.890;2023-05-29T09:22:24;20.00;99.90
21648;DHT22;10985;54.182;7.890;2023-05-29T09:24:49;20.00;99.90
21648;DHT22;10985;54.182;7.890;2023-05-29T09:27:17;19.90;99.90
21648;DHT22;10985;54.182;7.890;2023-05-29T09:29:45;19.90;99.90
21648;DHT22;10985;54.182;7.890;2023-05-29T09:32:13;20.00;99.90
21648;DHT22;10985;54.182;7.890;2023-05-29T09:34:39;20.20;99.90
21648;DHT22;10985;54.182;7.890;2023-05-29T09:37:08;20.30;99.90
21648;DHT22;10985;54.182;7.890;2023-05-29T09:39:55;20.50;99.90
21648;DHT22;10985;54.182;7.890;2023-05-29T09:42:20;20.60;99.90
21648;DHT22;10985;54.182;7.890;2023-05-29T09:44:49;20.60;99.90
21648;DHT22;10985;54.182;7.890;2023-05-29T09:47:18;20.90;99.90
21648;DHT22;10985;54.182;7.890;2023-05-29T09:49:45;21.10;99.90
21648;DHT22;10985;54.182;7.890;2023-05-29T09:52:12;21.30;99.90
21648;DHT22;10985;54.182;7.890;2023-05-29T09:54:41;21.50;99.90
21648;DHT22;10985;54.182;7.890;2023-05-29T09:57:12;21.60;99.90
21648;DHT22;10985;54.182;7.890;2023-05-29T09:59:39;21.80;99.90
21648;DHT22;10985;54.182;7.890;2023-05-29T10:02:06;22.00;99.90
21648;DHT22;10985;54.182;7.890;2023-05-29T10:04:36;22.30;99.90
21648;DHT22;10985;54.182;7.890;2023-05-29T10:07:08;22.20;99.90
21648;DHT22;10985;54.182;7.890;2023-05-29T10:09:42;22.20;99.90
21648;DHT22;10985;54.182;7.890;2023-05-29T10:12:11;22.50;99.90
21648;DHT22;10985;54.182;7.890;2023-05-29T10:14:37;22.60;99.90
21648;DHT22;10985;54.182;7.890;2023-05-29T10:17:07;22.80;99.90
21648;DHT22;10985;54.182;7.890;2023-05-29T10:19:36;22.90;99.90
21648;DHT22;10985;54.182;7.890;2023-05-29T10:22:04;23.00;99.90
21648;DHT22;10985;54.182;7.890;2023-05-29T10:24:31;23.20;99.90
21648;DHT22;10985;54.182;7.890;2023-05-29T10:26:57;23.50;99.90
21648;DHT22;10985;54.182;7.890;2023-05-29T10:29:31;23.50;99.90
21648;DHT22;10985;54.182;7.890;2023-05-29T10:32:29;23.50;99.90
21648;DHT22;10985;54.182;7.890;2023-05-29T10:35:15;23.80;99.90
21648;DHT22;10985;54.182;7.890;2023-05-29T10:37:55;24.00;99.90
21648;DHT22;10985;54.182;7.890;2023-05-29T10:40:24;24.20;99.90
21648;DHT22;10985;54.182;7.890;2023-05-29T10:42:51;24.50;99.90
21648;DHT22;10985;54.182;7.890;2023-05-29T10:47:55;24.60;99.80
21648;DHT22;10985;54.182;7.890;2023-05-29T10:50:41;24.70;99.90
21648;DHT22;10985;54.182;7.890;2023-05-29T10:53:10;24.80;99.50
21648;DHT22;10985;54.182;7.890;2023-05-29T10:55:37;25.00;99.50
21648;DHT22;10985;54.182;7.890;2023-05-29T10:58:07;25.10;98.90
21648;DHT22;10985;54.182;7.890;2023-05-29T11:00:33;25.20;99.00
21648;DHT22;10985;54.182;7.890;2023-05-29T11:03:04;25.30;97.00
21648;DHT22;10985;54.182;7.890;2023-05-29T11:05:32;25.40;96.20
21648;DHT22;10985;54.182;7.890;2023-05-29T11:07:59;25.40;97.30
21648;DHT22;10985;54.182;7.890;2023-05-29T11:13:35;25.60;95.80
21648;DHT22;10985;54.182;7.890;2023-05-29T11:16:35;25.70;95.40
21648;DHT22;10985;54.182;7.890;2023-05-29T11:19:08;25.80;94.40
21648;DHT22;10985;54.182;7.890;2023-05-29T11:24:04;26.00;93.70
21648;DHT22;10985;54.182;7.890;2023-05-29T11:26:33;26.10;92.80
21648;DHT22;10985;54.182;7.890;2023-05-29T11:29:02;26.10;93.90
21648;DHT22;10985;54.182;7.890;2023-05-29T11:31:28;26.20;94.20
21648;DHT22;10985;54.182;7.890;2023-05-29T11:33:59;26.30;94.50
21648;DHT22;10985;54.182;7.890;2023-05-29T11:36:27;26.30;93.60
21648;DHT22;10985;54.182;7.890;2023-05-29T11:38:53;26.30;92.80
21648;DHT22;10985;54.182;7.890;2023-05-29T11:41:19;26.40;91.80
21648;DHT22;10985;54.182;7.890;2023-05-29T11:43:45;26.40;92.50
21648;DHT22;10985;54.182;7.890;2023-05-29T11:46:20;26.30;92.50
21648;DHT22;10985;54.182;7.890;2023-05-29T11:48:46;26.20;92.50
21648;DHT22;10985;54.182;7.890;2023-05-29T11:51:12;26.20;92.50
21648;DHT22;10985;54.182;7.890;2023-05-29T11:53:42;26.20;93.00
21648;DHT22;10985;54.182;7.890;2023-05-29T11:56:10;26.00;92.70
21648;DHT22;10985;54.182;7.890;2023-05-29T11:58:39;25.90;91.90
21648;DHT22;10985;54.182;7.890;2023-05-29T12:01:06;25.70;92.50
21648;DHT22;10985;54.182;7.890;2023-05-29T12:03:42;25.90;92.90
21648;DHT22;10985;54.182;7.890;2023-05-29T12:06:10;26.00;93.50
21648;DHT22;10985;54.182;7.890;2023-05-29T12:08:37;26.20;93.10
21648;DHT22;10985;54.182;7.890;2023-05-29T12:11:03;26.20;92.30
21648;DHT22;10985;54.182;7.890;2023-05-29T12:13:29;26.20;91.80
21648;DHT22;10985;54.182;7.890;2023-05-29T12:16:02;26.10;92.60
21648;DHT22;10985;54.182;7.890;2023-05-29T12:18:28;26.10;92.60
21648;DHT22;10985;54.182;7.890;2023-05-29T12:21:02;26.20;91.80
21648;DHT22;10985;54.182;7.890;2023-05-29T12:23:28;26.10;91.50
21648;DHT22;10985;54.182;7.890;2023-05-29T12:25:54;26.20;91.80
21648;DHT22;10985;54.182;7.890;2023-05-29T12:28:21;26.20;91.30
21648;DHT22;10985;54.182;7.890;2023-05-29T12:30:47;26.00;91.90
21648;DHT22;10985;54.182;7.890;2023-05-29T12:33:29;26.00;91.50
21648;DHT22;10985;54.182;7.890;2023-05-29T12:36:02;25.90;90.90
21648;DHT22;10985;54.182;7.890;2023-05-29T12:38:27;26.00;91.70
21648;DHT22;10985;54.182;7.890;2023-05-29T12:40:53;25.90;92.00
21648;DHT22;10985;54.182;7.890;2023-05-29T12:43:19;25.90;90.80
21648;DHT22;10985;54.182;7.890;2023-05-29T12:45:45;25.80;91.20
21648;DHT22;10985;54.182;7.890;2023-05-29T12:48:11;25.60;91.90
21648;DHT22;10985;54.182;7.890;2023-05-29T12:50:40;25.40;92.80
21648;DHT22;10985;54.182;7.890;2023-05-29T12:53:14;25.20;93.20
21648;DHT22;10985;54.182;7.890;2023-05-29T12:55:43;25.20;93.10
21648;DHT22;10985;54.182;7.890;2023-05-29T12:58:10;25.10;92.70
21648;DHT22;10985;54.182;7.890;2023-05-29T13:00:41;24.70;92.80
21648;DHT22;10985;54.182;7.890;2023-05-29T13:03:07;24.60;93.70
21648;DHT22;10985;54.182;7.890;2023-05-29T13:05:33;24.30;95.00
21648;DHT22;10985;54.182;7.890;2023-05-29T13:07:59;24.00;95.60
21648;DHT22;10985;54.182;7.890;2023-05-29T13:10:25;23.70;95.80
21648;DHT22;10985;54.182;7.890;2023-05-29T13:12:53;23.40;96.40
21648;DHT22;10985;54.182;7.890;2023-05-29T13:15:21;23.10;97.00
21648;DHT22;10985;54.182;7.890;2023-05-29T13:17:47;22.80;97.10
21648;DHT22;10985;54.182;7.890;2023-05-29T13:20:13;22.40;97.80
21648;DHT22;10985;54.182;7.890;2023-05-29T13:22:39;22.20;99.40
21648;DHT22;10985;54.182;7.890;2023-05-29T13:25:06;21.80;99.90
21648;DHT22;10985;54.182;7.890;2023-05-29T13:27:37;21.40;99.90
21648;DHT22;10985;54.182;7.890;2023-05-29T13:30:06;20.90;99.90
21648;DHT22;10985;54.182;7.890;2023-05-29T13:32:32;20.60;99.90
21648;DHT22;10985;54.182;7.890;2023-05-29T13:34:58;20.20;99.90
21648;DHT22;10985;54.182;7.890;2023-05-29T13:37:24;19.90;99.90
21648;DHT22;10985;54.182;7.890;2023-05-29T13:39:50;19.60;99.90
21648;DHT22;10985;54.182;7.890;2023-05-29T13:42:17;19.30;99.90
21648;DHT22;10985;54.182;7.890;2023-05-29T13:44:43;19.20;99.90
21648;DHT22;10985;54.182;7.890;2023-05-29T13:47:08;18.80;99.90
21648;DHT22;10985;54.182;7.890;2023-05-29T13:49:34;18.70;99.90
21648;DHT22;10985;54.182;7.890;2023-05-29T13:52:01;18.50;99.90
21648;DHT22;10985;54.182;7.890;2023-05-29T13:54:27;18.40;99.90
21648;DHT22;10985;54.182;7.890;2023-05-29T13:56:55;18.10;99.90
21648;DHT22;10985;54.182;7.890;2023-05-29T13:59:22;17.80;99.90
21648;DHT22;10985;54.182;7.890;2023-05-29T14:01:47;17.70;99.90
21648;DHT22;10985;54.182;7.890;2023-05-29T14:04:13;17.50;99.90
21648;DHT22;10985;54.182;7.890;2023-05-29T14:06:38;17.40;99.90
21648;DHT22;10985;54.182;7.890;2023-05-29T14:09:04;17.40;99.90
21648;DHT22;10985;54.182;7.890;2023-05-29T14:11:30;17.20;99.90
21648;DHT22;10985;54.182;7.890;2023-05-29T14:13:55;17.10;99.90
21648;DHT22;10985;54.182;7.890;2023-05-29T14:16:21;16.90;99.90
21648;DHT22;10985;54.182;7.890;2023-05-29T14:18:47;16.80;99.90
21648;DHT22;10985;54.182;7.890;2023-05-29T14:21:14;16.60;99.90
21648;DHT22;10985;54.182;7.890;2023-05-29T14:23:39;16.40;99.90
21648;DHT22;10985;54.182;7.890;2023-05-29T14:26:05;16.40;99.90
21648;DHT22;10985;54.182;7.890;2023-05-29T14:28:31;16.30;99.90
21648;DHT22;10985;54.182;7.890;2023-05-29T14:30:56;16.20;99.90
21648;DHT22;10985;54.182;7.890;2023-05-29T14:33:22;16.20;99.90
21648;DHT22;10985;54.182;7.890;2023-05-29T14:35:48;16.10;99.90
21648;DHT22;10985;54.182;7.890;2023-05-29T14:38:13;16.10;99.90
21648;DHT22;10985;54.182;7.890;2023-05-29T14:40:39;16.00;99.90
21648;DHT22;10985;54.182;7.890;2023-05-29T14:43:04;15.90;99.90
21648;DHT22;10985;54.182;7.890;2023-05-29T14:45:30;15.90;99.90
21648;DHT22;10985;54.182;7.890;2023-05-29T14:47:55;15.80;99.90
21648;DHT22;10985;54.182;7.890;2023-05-29T14:50:21;15.80;99.90
21648;DHT22;10985;54.182;7.890;2023-05-29T14:52:46;15.70;99.90
21648;DHT22;10985;54.182;7.890;2023-05-29T14:55:15;15.60;99.90
21648;DHT22;10985;54.182;7.890;2023-05-29T14:57:41;15.50;99.90
21648;DHT22;10985;54.182;7.890;2023-05-29T15:00:07;15.50;99.90
21648;DHT22;10985;54.182;7.890;2023-05-29T15:02:33;15.50;99.90
21648;DHT22;10985;54.182;7.890;2023-05-29T15:04:58;15.50;99.90
21648;DHT22;10985;54.182;7.890;2023-05-29T15:07:25;15.40;99.90
21648;DHT22;10985;54.182;7.890;2023-05-29T15:09:51;15.40;99.90
21648;DHT22;10985;54.182;7.890;2023-05-29T15:12:17;15.30;99.90
21648;DHT22;10985;54.182;7.890;2023-05-29T15:14:42;15.20;99.90
21648;DHT22;10985;54.182;7.890;2023-05-29T15:17:08;15.20;99.90
21648;DHT22;10985;54.182;7.890;2023-05-29T15:19:33;15.20;99.90
21648;DHT22;10985;54.182;7.890;2023-05-29T15:21:59;15.10;99.90
21648;DHT22;10985;54.182;7.890;2023-05-29T15:24:25;15.10;99.90
21648;DHT22;10985;54.182;7.890;2023-05-29T15:26:50;15.00;99.90
21648;DHT22;10985;54.182;7.890;2023-05-29T15:29:16;15.00;99.90
21648;DHT22;10985;54.182;7.890;2023-05-29T15:31:42;15.00;99.90
21648;DHT22;10985;54.182;7.890;2023-05-29T15:34:07;15.00;99.90
21648;DHT22;10985;54.182;7.890;2023-05-29T15:36:33;14.90;99.90
21648;DHT22;10985;54.182;7.890;2023-05-29T15:38:59;14.90;99.90
21648;DHT22;10985;54.182;7.890;2023-05-29T15:41:24;14.80;99.90
21648;DHT22;10985;54.182;7.890;2023-05-29T15:43:54;14.80;99.90
21648;DHT22;10985;54.182;7.890;2023-05-29T15:46:20;14.80;99.90
21648;DHT22;10985;54.182;7.890;2023-05-29T15:48:45;14.80;99.90